Time;durP1;ratioP1;P1;durP2;ratioP2;P2;SDS_P1;SDS_P2;PMS_P1;PMS_P2;Temp;Humidity;BMP_temperature;BMP_pressure;BME280_temperature;BME280_humidity;BME280_pressure;Samples;Min_cycle;Max_cycle;Signal;HPM_P1;HPM_P2
2021/01/15 00:01:10;;;;;;;7.22;5.70;;;0.00;48.60;1.70;100812.00;;;;5073886;28;20449;-75
2021/01/15 00:03:39;;;;;;;6.90;5.78;;;0.10;48.60;1.70;100799.00;;;;5074420;28;20419;-77
2021/01/15 00:06:07;;;;;;;8.20;5.90;;;0.00;48.80;1.70;100798.00;;;;5056774;28;20421;-74
2021/01/15 00:08:40;;;;;;;9.90;5.97;;;0.00;48.80;1.70;100798.00;;;;5056319;28;20421;-76
2021/01/15 00:11:17;;;;;;;7.50;5.90;;;0.00;48.40;1.70;100809.00;;;;5064823;28;20507;-77
2021/01/15 00:13:44;;;;;;;6.90;5.80;;;0.10;49.00;1.60;100802.00;;;;5079082;28;20469;-76
2021/01/15 00:16:23;;;;;;;7.07;5.97;;;0.00;48.90;1.70;100788.00;;;;5081327;28;20407;-75
2021/01/15 00:18:52;;;;;;;8.55;5.55;;;0.00;48.60;217.30;157394.00;;;;5094451;28;20502;-74
2021/01/15 00:21:22;;;;;;;7.75;5.78;;;0.00;48.90;1.70;100801.00;;;;5094932;28;20404;-75
2021/01/15 00:23:51;;;;;;;8.48;6.18;;;0.10;48.50;217.30;157382.00;;;;5092588;28;20505;-76
2021/01/15 00:26:20;;;;;;;6.93;5.60;;;0.00;48.40;1.70;100798.00;;;;5092037;28;20855;-76
2021/01/15 00:28:48;;;;;;;6.82;5.20;;;0.00;48.40;1.60;100800.00;;;;5078241;28;20426;-78
2021/01/15 00:31:16;;;;;;;7.00;5.75;;;0.00;48.40;1.60;100811.00;;;;5073371;28;20433;-76
2021/01/15 00:33:45;;;;;;;9.13;5.70;;;0.00;48.30;1.60;100814.00;;;;5055597;28;20540;-77
2021/01/15 00:36:13;;;;;;;9.93;5.70;;;0.00;48.10;1.60;100803.00;;;;5056114;28;20428;-76
2021/01/15 00:38:41;;;;;;;14.77;6.82;;;0.10;49.10;1.60;66603.00;;;;5059359;28;20488;-75
2021/01/15 00:41:09;;;;;;;8.50;5.72;;;0.00;48.30;1.60;100804.00;;;;5065828;28;20421;-78
2021/01/15 00:43:38;;;;;;;6.47;5.07;;;0.00;48.30;217.30;157367.00;;;;5084700;28;20428;-76
2021/01/15 00:46:07;;;;;;;7.30;5.10;;;0.00;47.80;1.60;100805.00;;;;5076343;28;20431;-77
2021/01/15 00:48:36;;;;;;;6.80;5.30;;;0.00;47.30;1.60;100814.00;;;;5076264;28;20437;-78
2021/01/15 00:51:11;;;;;;;6.30;4.90;;;0.00;47.20;1.60;100810.00;;;;5083923;28;20425;-78
2021/01/15 00:53:39;;;;;;;6.22;4.85;;;0.10;46.80;1.60;100823.00;;;;5053581;28;20425;-78
2021/01/15 00:56:07;;;;;;;5.40;4.40;;;0.10;46.10;1.70;100821.00;;;;5056275;28;20499;-77
2021/01/15 00:58:34;;;;;;;6.60;4.22;;;0.20;45.60;1.70;100805.00;;;;5088184;28;20431;-77
2021/01/15 01:01:02;;;;;;;7.07;4.60;;;0.20;45.40;1.70;100810.00;;;;5097131;28;20423;-77
2021/01/15 01:03:44;;;;;;;5.97;4.30;;;0.20;45.10;1.70;100804.00;;;;5061126;28;20417;-76
2021/01/15 01:06:15;;;;;;;5.30;4.43;;;0.20;44.70;1.70;100815.00;;;;5082491;28;20552;-77
2021/01/15 01:08:43;;;;;;;5.07;4.00;;;0.20;44.40;1.70;100802.00;;;;5079204;28;20452;-77
2021/01/15 01:11:12;;;;;;;6.70;4.32;;;0.20;44.30;1.70;100830.00;;;;5067362;28;20425;-77
2021/01/15 01:13:40;;;;;;;5.63;4.40;;;0.20;44.50;1.70;100815.00;;;;5068830;28;20429;-77
2021/01/15 01:16:08;;;;;;;6.22;4.78;;;0.20;44.40;1.70;100823.00;;;;5074667;28;20794;-77
2021/01/15 01:18:36;;;;;;;6.93;4.77;;;0.20;44.80;1.70;100822.00;;;;5074063;28;20407;-77
2021/01/15 01:21:03;;;;;;;5.90;4.78;;;0.20;45.20;1.70;100813.00;;;;5074531;28;20518;-77
2021/01/15 01:23:31;;;;;;;5.70;4.80;;;0.20;44.50;1.70;100826.00;;;;5092201;28;20412;-77
2021/01/15 01:25:59;;;;;;;6.60;4.50;;;0.20;44.90;1.60;100843.00;;;;5063308;28;20789;-77
2021/01/15 01:28:27;;;;;;;5.35;4.43;;;0.10;44.70;1.60;100816.00;;;;5083362;28;20444;-78
2021/01/15 01:30:54;;;;;;;5.70;4.70;;;0.10;44.50;1.60;100818.00;;;;5073829;28;20506;-77
2021/01/15 01:33:22;;;;;;;5.97;5.00;;;0.10;44.60;1.60;100829.00;;;;5070051;28;20423;-78
2021/01/15 01:35:49;;;;;;;5.90;4.47;;;0.10;44.50;1.60;100823.00;;;;5055526;28;20508;-77
2021/01/15 01:38:17;;;;;;;6.90;4.70;;;0.10;44.20;1.70;100859.00;;;;5071124;28;20426;-77
2021/01/15 01:40:46;;;;;;;5.47;4.18;;;0.20;43.80;1.70;100833.00;;;;5074028;28;20426;-76
2021/01/15 01:43:13;;;;;;;7.20;4.60;;;0.20;43.60;1.70;100838.00;;;;5075262;28;20898;-77
2021/01/15 01:45:41;;;;;;;5.90;4.70;;;0.20;43.70;1.70;100834.00;;;;5078321;28;20454;-77
2021/01/15 01:48:12;;;;;;;5.57;4.43;;;0.20;43.60;1.70;100850.00;;;;5077542;28;20407;-77
2021/01/15 01:50:41;;;;;;;5.40;4.30;;;0.10;43.60;1.70;100844.00;;;;5075843;28;20434;-77
2021/01/15 01:53:13;;;;;;;6.20;4.20;;;0.10;43.70;1.70;100847.00;;;;5074155;28;20458;-77
2021/01/15 01:55:42;;;;;;;5.85;4.60;;;0.10;43.00;1.60;100836.00;;;;5067190;28;20505;-75
2021/01/15 01:58:12;;;;;;;4.75;4.25;;;0.10;42.90;1.60;100851.00;;;;5086014;28;20416;-77
2021/01/15 02:00:40;;;;;;;5.40;4.07;;;0.20;43.30;1.70;100874.00;;;;5073162;28;21050;-76
2021/01/15 02:03:08;;;;;;;4.53;4.00;;;0.20;42.20;1.60;100864.00;;;;5071828;28;20452;-76
2021/01/15 02:05:36;;;;;;;4.90;4.18;;;0.20;42.30;1.70;100852.00;;;;5089178;28;20434;-77
2021/01/15 02:08:04;;;;;;;6.15;4.70;;;0.10;42.20;1.60;100864.00;;;;5073841;28;20416;-76
2021/01/15 02:10:41;;;;;;;6.97;4.70;;;0.10;42.30;1.60;100864.00;;;;5072961;28;20511;-76
2021/01/15 02:13:17;;;;;;;5.75;4.20;;;0.10;42.40;1.60;100861.00;;;;5071945;28;20469;-76
2021/01/15 02:15:51;;;;;;;5.25;4.30;;;0.10;42.60;1.60;100858.00;;;;5073763;28;20518;-77
2021/01/15 02:18:30;;;;;;;5.60;4.53;;;0.10;42.80;1.60;100855.00;;;;5073238;28;20426;-76
2021/01/15 02:21:37;;;;;;;5.50;4.25;;;0.10;42.90;1.50;100849.00;;;;5072711;28;20908;-77
2021/01/15 02:24:15;;;;;;;6.53;4.70;;;0.10;43.40;1.60;100866.00;;;;5072004;28;20451;-78
2021/01/15 02:27:29;;;;;;;7.38;5.35;;;0.10;43.90;1.50;100865.00;;;;5057986;28;20440;-77
2021/01/15 02:30:18;;;;;;;7.57;5.00;;;0.10;44.40;1.50;100864.00;;;;5036098;28;20430;-77
2021/01/15 02:32:59;;;;;;;6.55;5.20;;;0.10;44.90;1.50;100857.00;;;;5075720;28;20411;-77
2021/01/15 02:35:50;;;;;;;5.28;4.78;;;0.00;45.20;1.50;100877.00;;;;5076470;28;20985;-77
2021/01/15 02:38:28;;;;;;;7.55;5.35;;;0.10;45.60;1.50;100876.00;;;;5073032;28;20880;-77
2021/01/15 02:41:26;;;;;;;5.70;5.10;;;0.00;46.30;1.40;100885.00;;;;5076537;28;20525;-77
2021/01/15 02:43:56;;;;;;;6.23;5.30;;;0.00;46.50;1.50;100875.00;;;;5051511;28;20598;-76
2021/01/15 02:46:52;;;;;;;7.60;5.80;;;0.00;46.90;217.30;157343.00;;;;5067024;28;20448;-76
2021/01/15 02:49:21;;;;;;;6.35;5.60;;;0.00;47.20;1.60;100906.00;;;;5064384;28;20451;-77
2021/01/15 02:51:49;;;;;;;7.97;5.82;;;0.00;47.50;1.70;100903.00;;;;5054853;28;20427;-77
2021/01/15 02:54:17;;;;;;;6.90;5.20;;;0.10;47.30;1.70;100910.00;;;;5073812;28;20461;-77
2021/01/15 02:56:44;;;;;;;6.55;5.85;;;0.20;47.10;1.80;100907.00;;;;5090071;28;20410;-77
2021/01/15 02:59:12;;;;;;;7.10;5.88;;;0.20;46.90;1.90;100911.00;;;;5068485;28;20426;-77
2021/01/15 03:01:49;;;;;;;7.88;6.07;;;0.30;46.50;2.00;100909.00;;;;5056542;28;20501;-77
2021/01/15 03:04:27;;;;;;;8.48;6.35;;;0.40;46.50;2.10;100916.00;;;;5052299;28;20424;-77
2021/01/15 03:06:59;;;;;;;8.53;6.50;;;0.50;46.60;2.20;100921.00;;;;5054742;28;21097;-77
2021/01/15 03:09:29;;;;;;;8.23;6.47;;;0.50;46.60;2.20;100925.00;;;;5068258;28;20419;-76
2021/01/15 03:12:00;;;;;;;7.13;6.28;;;0.60;46.70;2.20;100917.00;;;;5077953;28;20459;-77
2021/01/15 03:14:30;;;;;;;8.20;7.00;;;0.70;46.50;2.30;100924.00;;;;5056175;28;20432;-76
2021/01/15 03:16:58;;;;;;;8.05;6.63;;;0.70;46.60;2.30;100918.00;;;;5054987;28;20496;-77
2021/01/15 03:19:27;;;;;;;8.15;6.72;;;0.70;46.70;2.30;100937.00;;;;5069512;28;20778;-76
2021/01/15 03:21:55;;;;;;;8.60;7.70;;;0.70;47.50;2.30;100913.00;;;;5050668;28;20781;-76
2021/01/15 03:24:27;;;;;;;10.15;8.07;;;0.70;47.40;2.30;100921.00;;;;5050916;28;20416;-76
2021/01/15 03:26:55;;;;;;;8.50;7.60;;;0.70;47.50;2.30;100934.00;;;;5069429;28;20414;-76
2021/01/15 03:29:22;;;;;;;9.05;7.20;;;0.70;48.10;2.30;100911.00;;;;5064543;28;20422;-76
2021/01/15 03:31:49;;;;;;;11.80;7.78;;;0.70;48.40;2.30;100932.00;;;;5051633;28;20417;-77
2021/01/15 03:34:17;;;;;;;11.35;7.90;;;0.70;48.80;2.30;100939.00;;;;5068548;28;20884;-77
2021/01/15 03:36:45;;;;;;;9.98;8.10;;;0.70;48.70;2.30;100934.00;;;;5075155;28;20500;-75
2021/01/15 03:39:12;;;;;;;9.00;8.10;;;0.70;49.10;2.30;100937.00;;;;5073752;28;20520;-76
2021/01/15 03:41:39;;;;;;;9.02;8.10;;;0.70;49.00;2.30;100941.00;;;;5089131;28;20418;-77
2021/01/15 03:44:07;;;;;;;9.23;7.70;;;0.80;48.90;2.50;100946.00;;;;5104508;28;20513;-76
2021/01/15 03:46:34;;;;;;;9.05;8.15;;;0.90;48.60;2.50;100933.00;;;;5085753;28;20525;-76
2021/01/15 03:49:01;;;;;;;11.27;9.20;;;0.90;48.60;2.60;100953.00;;;;5088727;28;20466;-76
2021/01/15 03:51:29;;;;;;;11.05;8.50;;;0.90;48.90;2.50;100962.00;;;;5081552;28;20874;-77
2021/01/15 03:53:57;;;;;;;13.70;9.30;;;0.90;48.70;2.50;100953.00;;;;5051508;28;20425;-77
2021/01/15 03:56:24;;;;;;;10.25;8.82;;;0.80;48.90;2.40;100954.00;;;;5072999;28;20481;-76
2021/01/15 03:58:52;;;;;;;10.65;9.05;;;0.80;49.20;2.40;100965.00;;;;5066960;28;20424;-77
2021/01/15 04:01:19;;;;;;;11.10;9.35;;;0.80;49.40;2.30;100959.00;;;;5062513;28;20508;-76
2021/01/15 04:03:46;;;;;;;12.10;9.23;;;0.80;49.80;2.30;100959.00;;;;5081954;28;20449;-77
2021/01/15 04:06:14;;;;;;;12.82;9.60;;;0.70;50.40;2.30;100965.00;;;;5062361;28;20411;-77
2021/01/15 04:08:41;;;;;;;12.73;10.07;;;0.70;50.70;2.30;100966.00;;;;5073366;28;20415;-76
2021/01/15 04:11:09;;;;;;;11.48;9.55;;;0.70;50.70;2.30;100976.00;;;;5078139;28;20467;-76
2021/01/15 04:13:37;;;;;;;11.30;8.80;;;0.70;50.70;2.30;100980.00;;;;5069279;28;20457;-77
2021/01/15 04:16:05;;;;;;;12.07;9.75;;;0.70;50.70;2.30;100977.00;;;;5085934;28;20444;-76
2021/01/15 04:18:32;;;;;;;12.50;10.00;;;0.70;51.10;2.20;100981.00;;;;5093035;28;20428;-75
2021/01/15 04:21:05;;;;;;;11.90;10.27;;;0.60;52.20;2.20;100980.00;;;;5074099;28;20438;-76
2021/01/15 04:23:32;;;;;;;12.70;10.47;;;0.50;51.40;2.20;100992.00;;;;5065028;28;20414;-76
2021/01/15 04:26:00;;;;;;;12.55;9.90;;;0.50;52.20;2.10;100999.00;;;;5076922;28;20487;-76
2021/01/15 04:28:28;;;;;;;12.73;10.35;;;0.50;52.60;2.00;100996.00;;;;5059986;28;20452;-76
2021/01/15 04:30:56;;;;;;;13.00;10.50;;;0.50;52.80;2.00;100994.00;;;;5060371;28;20524;-76
2021/01/15 04:33:24;;;;;;;14.77;10.70;;;0.50;52.90;2.00;100999.00;;;;5055416;28;20455;-76
2021/01/15 04:35:51;;;;;;;13.05;10.77;;;0.40;53.90;2.00;101024.00;;;;5073169;28;20419;-76
2021/01/15 04:38:18;;;;;;;15.07;11.23;;;0.40;54.70;2.10;101003.00;;;;5073574;28;20420;-76
2021/01/15 04:40:45;;;;;;;14.45;11.40;;;0.40;55.10;2.10;100995.00;;;;5066922;28;20436;-77
2021/01/15 04:43:17;;;;;;;13.00;11.15;;;0.50;55.30;2.10;101012.00;;;;5065331;28;20504;-77
2021/01/15 04:45:46;;;;;;;12.15;10.50;;;0.50;55.20;2.20;101026.00;;;;5070779;28;20950;-78
2021/01/15 04:48:17;;;;;;;13.75;11.18;;;0.60;55.20;2.20;101017.00;;;;5054529;28;20824;-76
2021/01/15 04:50:45;;;;;;;12.82;10.95;;;0.60;55.00;2.20;101027.00;;;;5064853;28;20530;-77
2021/01/15 04:53:17;;;;;;;14.82;12.20;;;0.60;55.00;2.30;101019.00;;;;5070479;28;20500;-76
2021/01/15 04:55:45;;;;;;;13.68;11.52;;;0.70;54.70;2.30;101024.00;;;;5091003;28;20410;-76
2021/01/15 04:58:16;;;;;;;13.32;11.85;;;0.70;55.00;2.30;101019.00;;;;5083718;28;20419;-77
2021/01/15 05:00:46;;;;;;;14.95;12.27;;;0.70;54.80;2.40;101032.00;;;;5094894;28;20534;-75
2021/01/15 05:03:15;;;;;;;15.02;12.13;;;0.70;54.60;2.40;101026.00;;;;5088199;28;20433;-77
2021/01/15 05:05:44;;;;;;;14.35;11.70;;;0.70;55.30;2.30;101029.00;;;;5075139;28;20418;-76
2021/01/15 05:08:14;;;;;;;14.15;11.52;;;0.70;54.50;2.20;101027.00;;;;5070173;28;20420;-77
2021/01/15 05:10:43;;;;;;;13.95;11.35;;;0.80;55.20;2.10;101033.00;;;;5103952;28;20448;-76
2021/01/15 05:13:14;;;;;;;13.23;11.40;;;0.70;54.70;2.20;101039.00;;;;5086480;28;20484;-76
2021/01/15 05:15:45;;;;;;;16.10;12.20;;;0.60;54.90;2.20;101047.00;;;;5080424;28;20428;-75
2021/01/15 05:18:17;;;;;;;15.23;11.95;;;0.60;54.70;2.20;101043.00;;;;5076158;28;20405;-76
2021/01/15 05:20:45;;;;;;;16.85;12.40;;;0.60;55.00;2.20;101038.00;;;;5075793;28;20421;-76
2021/01/15 05:23:12;;;;;;;16.08;12.30;;;0.60;55.00;2.10;101042.00;;;;5058345;28;20492;-76
2021/01/15 05:25:44;;;;;;;15.47;12.20;;;0.60;55.10;2.10;101027.00;;;;5075393;28;20430;-76
2021/01/15 05:28:12;;;;;;;16.90;12.90;;;0.60;55.70;2.10;101057.00;;;;5098973;28;20545;-76
2021/01/15 05:30:41;;;;;;;16.55;13.10;;;0.60;55.20;2.10;101051.00;;;;5095618;28;20430;-75
2021/01/15 05:33:14;;;;;;;15.18;12.93;;;0.50;55.30;2.00;101044.00;;;;5095235;28;20423;-78
2021/01/15 05:35:46;;;;;;;15.63;12.10;;;0.50;55.50;2.00;101055.00;;;;5068052;28;20421;-76
2021/01/15 05:38:16;;;;;;;15.77;12.30;;;0.50;55.70;2.00;101043.00;;;;5088805;28;20426;-76
2021/01/15 05:40:46;;;;;;;16.30;13.07;;;0.50;55.70;2.00;101055.00;;;;5100778;28;20519;-77
2021/01/15 05:43:23;;;;;;;15.10;12.57;;;0.50;56.00;2.00;101037.00;;;;5085686;28;20444;-75
2021/01/15 05:46:10;;;;;;;16.13;13.47;;;0.40;55.90;1.90;101073.00;;;;5073122;28;20485;-77
2021/01/15 05:48:45;;;;;;;17.45;13.25;;;0.40;55.70;1.90;101067.00;;;;5067064;28;20894;-76
2021/01/15 05:51:28;;;;;;;16.33;13.00;;;0.40;56.90;1.90;101058.00;;;;5084977;28;20479;-77
2021/01/15 05:53:57;;;;;;;15.32;13.20;;;0.30;57.90;1.70;101070.00;;;;5077106;28;20423;-75
2021/01/15 05:56:26;;;;;;;16.20;12.77;;;0.20;57.80;1.70;101065.00;;;;5053432;28;20421;-76
2021/01/15 05:59:06;;;;;;;17.55;13.38;;;0.20;57.90;217.30;157353.00;;;;5070413;28;20418;-77
2021/01/15 06:01:50;;;;;;;15.98;12.50;;;0.10;58.70;1.60;101073.00;;;;5063075;28;20413;-77
2021/01/15 06:04:20;;;;;;;15.73;12.30;;;0.00;59.10;1.50;101081.00;;;;5063715;28;20433;-78
2021/01/15 06:06:48;;;;;;;16.27;12.93;;;-0.10;60.00;1.40;101085.00;;;;5062509;28;20453;-76
2021/01/15 06:09:21;;;;;;;18.77;13.57;;;-0.10;60.80;1.30;101092.00;;;;5054622;28;20418;-76
2021/01/15 06:11:51;;;;;;;17.67;13.40;;;-0.10;61.20;1.20;101094.00;;;;5076064;28;20529;-77
2021/01/15 06:14:21;;;;;;;18.67;13.40;;;-0.30;62.50;1.20;101087.00;;;;5064765;28;20418;-77
2021/01/15 06:16:49;;;;;;;17.23;13.40;;;-0.40;63.70;1.20;101079.00;;;;5075993;28;20425;-76
2021/01/15 06:19:18;;;;;;;17.05;13.82;;;-0.40;64.40;1.10;101107.00;;;;5055431;28;20440;-78
2021/01/15 06:21:53;;;;;;;17.75;13.60;;;-0.40;65.50;1.10;101113.00;;;;5067764;28;20460;-76
2021/01/15 06:24:23;;;;;;;16.75;13.45;;;-0.40;65.40;1.10;101108.00;;;;5063452;28;20509;-77
2021/01/15 06:27:05;;;;;;;17.17;13.65;;;-0.50;65.90;1.10;101101.00;;;;5070899;28;20449;-75
2021/01/15 06:29:44;;;;;;;17.25;13.80;;;-0.50;66.40;1.10;101111.00;;;;5075853;28;20445;-76
2021/01/15 06:32:12;;;;;;;17.52;14.38;;;-0.50;66.90;1.00;101102.00;;;;5081722;28;20525;-77
2021/01/15 06:34:49;;;;;;;18.87;15.40;;;-0.60;67.30;1.00;101122.00;;;;5090811;28;20441;-76
2021/01/15 06:37:21;;;;;;;18.48;14.18;;;-0.60;68.00;1.00;101111.00;;;;5092673;28;20479;-77
2021/01/15 06:40:09;;;;;;;19.45;14.30;;;-0.60;68.20;1.00;101135.00;;;;5094174;28;20403;-77
2021/01/15 06:42:45;;;;;;;18.63;14.00;;;-0.50;68.30;1.00;101120.00;;;;5075839;28;20847;-77
2021/01/15 06:45:14;;;;;;;19.67;14.23;;;-0.50;68.20;1.00;101119.00;;;;5068636;28;20436;-75
2021/01/15 06:47:44;;;;;;;17.97;14.27;;;-0.60;67.90;0.90;101124.00;;;;5054268;28;20433;-74
2021/01/15 06:50:18;;;;;;;17.75;14.60;;;-0.60;68.00;0.90;101117.00;;;;5064361;28;20505;-77
2021/01/15 06:52:50;;;;;;;19.70;14.77;;;-0.60;68.10;0.90;101131.00;;;;5058338;28;20433;-75
2021/01/15 06:55:20;;;;;;;20.13;14.43;;;-0.70;68.30;0.90;101113.00;;;;5082626;28;20428;-75
2021/01/15 06:57:51;;;;;;;17.60;14.27;;;-0.70;68.70;0.90;101133.00;;;;5056079;28;20525;-76
2021/01/15 07:00:23;;;;;;;19.50;15.85;;;-0.60;69.00;0.90;101129.00;;;;5076045;28;20416;-76
2021/01/15 07:03:34;;;;;;;19.90;15.70;;;-0.70;69.20;0.80;101140.00;;;;5060875;28;20883;-77
2021/01/15 07:06:03;;;;;;;20.95;14.90;;;-0.70;69.30;0.80;101137.00;;;;5055545;28;20922;-75
2021/01/15 07:08:31;;;;;;;18.23;14.43;;;-0.70;69.30;0.80;101147.00;;;;5051572;28;20417;-74
2021/01/15 07:11:00;;;;;;;20.30;15.50;;;-0.70;69.50;217.30;157029.00;;;;5053747;28;20531;-74
2021/01/15 07:13:29;;;;;;;17.60;14.00;;;-0.70;69.80;0.80;101150.00;;;;5063839;28;20424;-75
2021/01/15 07:15:56;;;;;;;20.88;14.50;;;-0.70;69.80;0.80;101157.00;;;;5056280;28;20521;-75
2021/01/15 07:18:33;;;;;;;19.05;15.13;;;-0.70;69.80;0.90;101155.00;;;;5075002;28;20421;-76
2021/01/15 07:21:08;;;;;;;18.23;14.48;;;-0.70;69.80;0.90;101140.00;;;;5065881;28;20911;-75
2021/01/15 07:23:54;;;;;;;18.25;14.27;;;-0.70;69.80;0.90;101153.00;;;;5052168;28;20417;-75
2021/01/15 07:26:23;;;;;;;17.20;13.60;;;-0.70;69.80;0.90;101168.00;;;;5069889;28;20424;-75
2021/01/15 07:28:58;;;;;;;18.55;13.55;;;-0.70;69.80;0.90;101166.00;;;;5071810;28;20407;-75
2021/01/15 07:31:27;;;;;;;18.23;13.35;;;-0.60;69.80;0.90;101160.00;;;;5089099;28;20412;-75
2021/01/15 07:33:59;;;;;;;16.92;13.45;;;-0.50;69.30;0.90;101170.00;;;;5069145;28;20425;-76
2021/01/15 07:36:40;;;;;;;18.60;14.15;;;-0.50;69.20;1.00;101163.00;;;;5052472;28;20923;-76
2021/01/15 07:39:12;;;;;;;18.90;14.40;;;-0.50;69.30;1.10;101171.00;;;;5055527;28;20513;-76
2021/01/15 07:41:43;;;;;;;18.13;13.80;;;-0.40;69.20;1.20;101176.00;;;;5059032;28;20528;-76
2021/01/15 07:44:38;;;;;;;18.38;14.35;;;-0.30;68.70;1.30;101176.00;;;;5059929;28;20422;-76
2021/01/15 07:47:12;;;;;;;19.80;14.27;;;-0.20;68.20;1.40;101165.00;;;;5075664;28;20435;-79
2021/01/15 07:49:47;;;;;;;18.52;14.32;;;-0.10;68.20;1.50;101187.00;;;;5092369;28;20446;-76
2021/01/15 07:52:15;;;;;;;17.25;14.15;;;0.00;67.90;1.60;101185.00;;;;5090028;28;20417;-77
2021/01/15 07:55:00;;;;;;;18.42;14.40;;;0.10;67.80;1.80;101197.00;;;;5078571;28;20407;-75
2021/01/15 07:57:30;;;;;;;18.00;14.00;;;0.20;67.00;1.90;101199.00;;;;5059728;28;20507;-75
2021/01/15 08:00:23;;;;;;;18.57;14.53;;;0.30;66.40;2.00;101199.00;;;;5065762;28;20417;-78
2021/01/15 08:02:57;;;;;;;18.10;15.30;;;0.50;65.60;2.10;101203.00;;;;5072248;28;20431;-78
2021/01/15 08:05:25;;;;;;;19.85;15.15;;;0.60;64.90;2.30;101207.00;;;;5077442;28;20910;-76
2021/01/15 08:08:05;;;;;;;19.20;15.13;;;0.70;64.60;2.40;101219.00;;;;5093644;28;20423;-76
2021/01/15 08:10:44;;;;;;;18.85;14.55;;;0.80;63.60;2.50;101203.00;;;;5076490;28;20459;-77
2021/01/15 08:13:20;;;;;;;21.20;16.23;;;0.80;63.00;2.40;101198.00;;;;5080350;28;20991;-76
2021/01/15 08:15:49;;;;;;;19.73;16.10;;;0.80;62.00;2.40;101201.00;;;;5080284;28;20427;-76
2021/01/15 08:18:17;;;;;;;19.58;15.48;;;1.00;62.40;2.50;101208.00;;;;5090924;28;20427;-75
2021/01/15 08:20:56;;;;;;;21.37;15.80;;;0.90;62.10;2.40;101202.00;;;;5084482;28;20438;-76
2021/01/15 08:23:26;;;;;;;18.45;16.02;;;0.90;60.90;217.30;157737.00;;;;5057089;28;20454;-74
2021/01/15 08:26:23;;;;;;;19.73;15.98;;;1.00;60.90;2.60;101207.00;;;;5081215;28;20431;-75
2021/01/15 08:28:50;;;;;;;19.90;16.20;;;1.00;60.00;2.60;101234.00;;;;5057570;28;20474;-75
2021/01/15 08:31:22;;;;;;;20.05;16.25;;;1.00;60.00;2.70;101225.00;;;;5073914;28;20451;-75
2021/01/15 08:34:06;;;;;;;21.48;15.02;;;1.00;60.40;2.60;101225.00;;;;5075225;28;20492;-76
2021/01/15 08:36:34;;;;;;;18.50;15.60;;;1.10;60.10;2.70;101223.00;;;;5077677;28;20433;-75
2021/01/15 08:39:02;;;;;;;21.43;17.07;;;1.00;59.80;2.70;101240.00;;;;5067218;28;20484;-75
2021/01/15 08:41:30;;;;;;;20.52;16.58;;;1.10;59.60;2.80;101232.00;;;;5070653;28;20508;-76
2021/01/15 08:43:57;;;;;;;22.40;17.00;;;1.10;59.50;3.00;101233.00;;;;5057485;28;20467;-75
2021/01/15 08:46:25;;;;;;;23.75;17.60;;;1.20;59.20;3.10;101241.00;;;;5077314;28;20422;-76
2021/01/15 08:48:53;;;;;;;21.67;17.00;;;1.30;59.00;3.20;101250.00;;;;5053793;28;20445;-76
2021/01/15 08:51:21;;;;;;;21.42;17.00;;;1.50;58.30;3.20;101234.00;;;;5064190;28;20445;-75
2021/01/15 08:54:05;;;;;;;20.67;17.48;;;1.50;58.30;3.20;101253.00;;;;5073159;28;20407;-78
2021/01/15 08:56:40;;;;;;;21.35;17.52;;;1.50;57.60;3.40;101256.00;;;;5068682;28;20469;-75
2021/01/15 08:59:10;;;;;;;21.83;16.85;;;1.70;58.80;3.40;66998.00;;;;5074785;28;20453;-75
2021/01/15 09:01:39;;;;;;;19.08;16.38;;;1.70;56.20;3.30;101273.00;;;;5075017;28;20419;-78
2021/01/15 09:04:09;;;;;;;21.90;17.35;;;1.70;56.10;3.30;101275.00;;;;5072224;28;20420;-75
2021/01/15 09:06:39;;;;;;;21.00;17.00;;;1.60;56.00;3.30;101280.00;;;;5059558;28;20826;-76
2021/01/15 09:09:09;;;;;;;20.67;17.77;;;1.70;55.70;3.40;101285.00;;;;5075088;28;20423;-76
2021/01/15 09:11:39;;;;;;;20.33;16.30;;;1.80;56.20;3.40;101281.00;;;;5089973;28;20419;-74
2021/01/15 09:14:12;;;;;;;18.17;16.00;;;1.80;54.60;3.40;101287.00;;;;5086553;28;20452;-76
2021/01/15 09:16:41;;;;;;;21.00;16.53;;;1.80;55.00;3.30;101295.00;;;;5078883;28;20974;-74
2021/01/15 09:19:12;;;;;;;21.85;16.17;;;1.80;55.40;3.30;101299.00;;;;5078756;28;20823;-76
2021/01/15 09:21:50;;;;;;;19.42;15.45;;;1.80;54.80;3.50;101297.00;;;;5079155;28;20456;-76
2021/01/15 09:24:19;;;;;;;17.77;14.52;;;1.90;54.80;3.60;101311.00;;;;5073336;28;20433;-75
2021/01/15 09:26:55;;;;;;;19.63;15.57;;;1.90;54.80;3.60;101312.00;;;;5079019;28;20913;-73
2021/01/15 09:29:24;;;;;;;19.27;16.25;;;2.00;53.40;3.60;101307.00;;;;5076267;28;20910;-74
2021/01/15 09:31:52;;;;;;;20.48;14.73;;;2.00;53.90;3.60;101325.00;;;;5077602;28;20426;-74
2021/01/15 09:34:21;;;;;;;17.98;14.70;;;2.00;53.90;3.70;101327.00;;;;5072039;28;20419;-75
2021/01/15 09:36:50;;;;;;;19.20;16.20;;;2.00;54.60;3.70;101317.00;;;;5087689;28;20460;-77
2021/01/15 09:39:22;;;;;;;18.60;15.77;;;2.10;54.00;3.80;101333.00;;;;5078751;28;20651;-77
2021/01/15 09:41:52;;;;;;;19.00;15.93;;;2.20;54.70;4.00;101321.00;;;;5077034;28;20430;-77
2021/01/15 09:44:22;;;;;;;18.70;15.10;;;2.30;53.80;4.10;101331.00;;;;5086457;28;20426;-78
2021/01/15 09:46:56;;;;;;;18.45;15.00;;;2.40;52.70;4.00;101332.00;;;;5087565;28;20881;-78
2021/01/15 09:49:25;;;;;;;18.02;15.90;;;2.40;52.70;4.00;101324.00;;;;5082277;28;20427;-77
2021/01/15 09:51:52;;;;;;;19.98;15.20;;;2.40;51.60;4.10;101333.00;;;;5076950;28;20426;-77
2021/01/15 09:54:20;;;;;;;17.45;14.50;;;2.50;51.80;4.10;101341.00;;;;5080353;28;20416;-79
2021/01/15 09:56:47;;;;;;;17.20;15.02;;;2.50;52.00;4.30;101336.00;;;;5074283;28;20421;-78
2021/01/15 09:59:17;;;;;;;18.23;14.68;;;2.60;52.50;4.50;67250.00;;;;5080517;28;20416;-78
2021/01/15 10:01:46;;;;;;;17.47;15.60;;;2.70;52.20;4.70;101328.00;;;;5081906;28;20473;-78
2021/01/15 10:04:14;;;;;;;17.23;14.35;;;2.80;51.20;4.80;101335.00;;;;5078559;28;20416;-78
2021/01/15 10:06:43;;;;;;;16.25;14.10;;;2.90;50.40;4.80;101339.00;;;;5083865;28;20518;-78
2021/01/15 10:09:12;;;;;;;20.70;15.93;;;3.00;49.50;4.80;101346.00;;;;5078961;28;20505;-78
2021/01/15 10:11:46;;;;;;;18.67;15.10;;;2.90;50.50;4.70;101372.00;;;;5060584;28;20417;-79
2021/01/15 10:14:16;;;;;;;17.13;14.30;;;2.90;50.10;4.60;101351.00;;;;5068444;28;20423;-79
2021/01/15 10:16:47;;;;;;;17.97;14.70;;;2.90;50.30;4.20;101328.00;;;;5079998;28;20541;-79
2021/01/15 10:19:16;;;;;;;17.52;15.05;;;2.70;50.90;4.50;101188.00;;;;5078840;28;20445;-77
2021/01/15 10:21:44;;;;;;;18.92;16.00;;;2.70;51.80;4.60;101359.00;;;;5079915;28;20434;-78
2021/01/15 10:24:13;;;;;;;19.07;15.63;;;2.80;51.00;4.70;101375.00;;;;5086943;28;20473;-78
2021/01/15 10:26:42;;;;;;;18.40;15.57;;;2.90;50.30;4.80;101380.00;;;;5086779;28;20416;-77
2021/01/15 10:29:11;;;;;;;17.77;15.57;;;3.00;50.10;4.80;101381.00;;;;5082702;28;20407;-78
2021/01/15 10:31:47;;;;;;;18.27;15.02;;;3.00;50.70;4.90;101365.00;;;;5077412;28;20477;-77
2021/01/15 10:34:15;;;;;;;19.52;15.55;;;3.00;50.10;4.80;101376.00;;;;5077813;28;20514;-78
2021/01/15 10:36:45;;;;;;;16.85;14.85;;;3.00;51.00;4.90;101381.00;;;;5080539;28;20427;-78
2021/01/15 10:39:13;;;;;;;16.50;14.57;;;3.00;50.40;4.90;101386.00;;;;5078512;28;20424;-79
2021/01/15 10:41:44;;;;;;;18.20;16.13;;;3.10;49.70;4.90;101375.00;;;;5079662;28;20455;-78
2021/01/15 10:44:14;;;;;;;16.55;14.75;;;3.10;49.50;4.90;101369.00;;;;5079034;28;20446;-78
2021/01/15 10:46:46;;;;;;;17.90;15.95;;;3.10;49.20;5.10;101370.00;;;;5081871;28;20445;-77
2021/01/15 10:49:15;;;;;;;19.05;15.93;;;3.20;49.80;5.10;101393.00;;;;5075442;28;20490;-78
2021/01/15 10:51:45;;;;;;;19.42;15.90;;;3.20;49.30;5.00;101367.00;;;;5099053;28;20524;-78
2021/01/15 10:54:12;;;;;;;18.50;16.00;;;3.20;49.10;5.10;101372.00;;;;5109111;28;20427;-78
2021/01/15 10:56:42;;;;;;;17.40;15.50;;;3.20;48.80;4.90;101370.00;;;;5092006;28;20438;-79
2021/01/15 10:59:10;;;;;;;18.48;15.75;;;3.20;49.90;5.10;101383.00;;;;5090365;28;20391;-78
2021/01/15 11:01:38;;;;;;;21.10;16.70;;;3.20;49.60;4.90;67335.00;;;;5095061;28;20411;-79
2021/01/15 11:04:09;;;;;;;17.83;15.90;;;3.20;49.80;5.10;67401.00;;;;5092430;28;20416;-79
2021/01/15 11:06:38;;;;;;;18.92;16.00;;;3.20;49.60;5.10;67390.00;;;;5086315;28;20505;-80
2021/01/15 11:09:08;;;;;;;19.40;15.75;;;3.30;49.80;5.10;67390.00;;;;5086949;28;20915;-78